sensor_id;sensor_type;location;lat;lon;timestamp;temperature;humidity
36186;DHT22;22228;53.222;7.446;2023-06-14T00:00:27;15.80;99.90
36186;DHT22;22228;53.222;7.446;2023-06-14T00:03:15;15.70;99.90
36186;DHT22;22228;53.222;7.446;2023-06-14T00:05:38;15.70;99.90
36186;DHT22;22228;53.222;7.446;2023-06-14T00:08:38;15.70;99.90
36186;DHT22;22228;53.222;7.446;2023-06-14T00:11:06;15.60;99.90
36186;DHT22;22228;53.222;7.446;2023-06-14T00:13:28;15.60;99.90
36186;DHT22;22228;53.222;7.446;2023-06-14T03:01:36;13.90;1.00
36186;DHT22;22228;53.222;7.446;2023-06-14T03:04:04;13.80;1.00
36186;DHT22;22228;53.222;7.446;2023-06-14T03:07:20;13.80;1.00
36186;DHT22;22228;53.222;7.446;2023-06-14T03:10:08;13.70;1.00
36186;DHT22;22228;53.222;7.446;2023-06-14T03:12:29;13.70;1.00
36186;DHT22;22228;53.222;7.446;2023-06-14T03:14:50;13.70;1.00
36186;DHT22;22228;53.222;7.446;2023-06-14T03:17:16;13.70;1.00
36186;DHT22;22228;53.222;7.446;2023-06-14T03:19:41;13.60;16.50
36186;DHT22;22228;53.222;7.446;2023-06-14T03:22:01;13.60;99.90
36186;DHT22;22228;53.222;7.446;2023-06-14T03:24:25;13.60;99.90
36186;DHT22;22228;53.222;7.446;2023-06-14T03:26:49;13.60;99.90
36186;DHT22;22228;53.222;7.446;2023-06-14T03:29:12;13.60;99.90
36186;DHT22;22228;53.222;7.446;2023-06-14T03:31:56;13.60;99.90
36186;DHT22;22228;53.222;7.446;2023-06-14T03:34:20;13.60;99.90
36186;DHT22;22228;53.222;7.446;2023-06-14T03:36:41;13.60;99.90
36186;DHT22;22228;53.222;7.446;2023-06-14T03:39:09;13.50;99.90
36186;DHT22;22228;53.222;7.446;2023-06-14T03:41:31;13.50;99.90
36186;DHT22;22228;53.222;7.446;2023-06-14T03:43:51;13.40;1.00
36186;DHT22;22228;53.222;7.446;2023-06-14T03:46:13;13.50;1.00
36186;DHT22;22228;53.222;7.446;2023-06-14T03:48:36;13.50;1.00
36186;DHT22;22228;53.222;7.446;2023-06-14T03:51:08;13.50;1.00
36186;DHT22;22228;53.222;7.446;2023-06-14T03:53:31;13.50;1.00
36186;DHT22;22228;53.222;7.446;2023-06-14T03:55:57;13.50;1.00
36186;DHT22;22228;53.222;7.446;2023-06-14T03:58:26;13.50;1.00
36186;DHT22;22228;53.222;7.446;2023-06-14T04:00:58;13.60;1.00
36186;DHT22;22228;53.222;7.446;2023-06-14T04:03:22;13.60;1.00
36186;DHT22;22228;53.222;7.446;2023-06-14T04:05:47;13.70;99.90
36186;DHT22;22228;53.222;7.446;2023-06-14T04:08:12;13.70;99.90
36186;DHT22;22228;53.222;7.446;2023-06-14T04:11:01;13.70;99.90
36186;DHT22;22228;53.222;7.446;2023-06-14T04:13:26;13.80;99.90
36186;DHT22;22228;53.222;7.446;2023-06-14T04:15:47;13.80;99.90
36186;DHT22;22228;53.222;7.446;2023-06-14T04:18:32;13.80;99.90
36186;DHT22;22228;53.222;7.446;2023-06-14T04:20:56;13.80;99.90
36186;DHT22;22228;53.222;7.446;2023-06-14T04:23:21;13.80;99.90
36186;DHT22;22228;53.222;7.446;2023-06-14T04:25:42;13.90;99.90
36186;DHT22;22228;53.222;7.446;2023-06-14T04:28:32;13.90;99.90
36186;DHT22;22228;53.222;7.446;2023-06-14T04:31:02;13.90;99.90
36186;DHT22;22228;53.222;7.446;2023-06-14T04:33:26;13.90;99.90
36186;DHT22;22228;53.222;7.446;2023-06-14T04:35:54;14.00;99.90
36186;DHT22;22228;53.222;7.446;2023-06-14T04:38:18;14.00;99.90
36186;DHT22;22228;53.222;7.446;2023-06-14T04:40:51;14.00;99.90
36186;DHT22;22228;53.222;7.446;2023-06-14T04:43:16;14.00;99.90
36186;DHT22;22228;53.222;7.446;2023-06-14T04:46:02;14.10;99.90
36186;DHT22;22228;53.222;7.446;2023-06-14T04:48:26;14.10;99.90
36186;DHT22;22228;53.222;7.446;2023-06-14T04:51:14;14.10;99.90
36186;DHT22;22228;53.222;7.446;2023-06-14T04:53:36;14.10;99.90
36186;DHT22;22228;53.222;7.446;2023-06-14T04:56:26;14.10;99.90
36186;DHT22;22228;53.222;7.446;2023-06-14T04:58:49;14.30;99.90
36186;DHT22;22228;53.222;7.446;2023-06-14T05:04:27;14.20;99.90
36186;DHT22;22228;53.222;7.446;2023-06-14T05:06:49;14.30;99.90
36186;DHT22;22228;53.222;7.446;2023-06-14T05:09:35;14.40;95.00
36186;DHT22;22228;53.222;7.446;2023-06-14T05:11:57;14.40;99.90
36186;DHT22;22228;53.222;7.446;2023-06-14T05:14:27;14.50;7.00
36186;DHT22;22228;53.222;7.446;2023-06-14T05:16:50;14.50;1.00
36186;DHT22;22228;53.222;7.446;2023-06-14T05:19:41;14.50;20.50
36186;DHT22;22228;53.222;7.446;2023-06-14T05:22:02;14.50;1.00
36186;DHT22;22228;53.222;7.446;2023-06-14T05:24:51;14.60;1.00
36186;DHT22;22228;53.222;7.446;2023-06-14T05:27:14;14.70;1.00
36186;DHT22;22228;53.222;7.446;2023-06-14T05:29:41;14.80;1.00
36186;DHT22;22228;53.222;7.446;2023-06-14T05:32:04;14.80;1.00
36186;DHT22;22228;53.222;7.446;2023-06-14T05:34:26;14.90;1.00
36186;DHT22;22228;53.222;7.446;2023-06-14T05:36:47;15.00;1.00
36186;DHT22;22228;53.222;7.446;2023-06-14T05:39:11;15.10;1.00
36186;DHT22;22228;53.222;7.446;2023-06-14T05:41:31;15.20;99.90
36186;DHT22;22228;53.222;7.446;2023-06-14T05:44:19;15.20;99.90
36186;DHT22;22228;53.222;7.446;2023-06-14T05:46:42;15.40;99.90
36186;DHT22;22228;53.222;7.446;2023-06-14T05:50:11;15.40;99.90
36186;DHT22;22228;53.222;7.446;2023-06-14T05:52:35;15.60;99.90
36186;DHT22;22228;53.222;7.446;2023-06-14T05:55:00;15.80;1.00
36186;DHT22;22228;53.222;7.446;2023-06-14T05:57:31;15.90;1.00
36186;DHT22;22228;53.222;7.446;2023-06-14T05:59:53;16.00;1.00
36186;DHT22;22228;53.222;7.446;2023-06-14T06:02:38;16.20;1.00
36186;DHT22;22228;53.222;7.446;2023-06-14T06:05:06;16.30;1.00
36186;DHT22;22228;53.222;7.446;2023-06-14T06:07:29;16.50;99.90
36186;DHT22;22228;53.222;7.446;2023-06-14T06:10:02;16.70;99.90
36186;DHT22;22228;53.222;7.446;2023-06-14T06:12:25;16.80;99.90
36186;DHT22;22228;53.222;7.446;2023-06-14T06:14:45;17.00;99.90
36186;DHT22;22228;53.222;7.446;2023-06-14T06:17:32;17.10;99.90
36186;DHT22;22228;53.222;7.446;2023-06-14T06:20:18;17.30;46.60
36186;DHT22;22228;53.222;7.446;2023-06-14T06:22:47;17.50;1.00
36186;DHT22;22228;53.222;7.446;2023-06-14T06:25:09;17.60;1.00
36186;DHT22;22228;53.222;7.446;2023-06-14T06:27:30;17.80;1.00
36186;DHT22;22228;53.222;7.446;2023-06-14T06:29:51;17.90;1.00
36186;DHT22;22228;53.222;7.446;2023-06-14T06:32:16;18.00;1.00
36186;DHT22;22228;53.222;7.446;2023-06-14T06:34:39;18.10;1.00
36186;DHT22;22228;53.222;7.446;2023-06-14T06:37:03;18.20;1.00
36186;DHT22;22228;53.222;7.446;2023-06-14T06:39:24;18.30;1.00
36186;DHT22;22228;53.222;7.446;2023-06-14T06:41:54;18.40;1.00
36186;DHT22;22228;53.222;7.446;2023-06-14T06:44:26;18.60;1.00
36186;DHT22;22228;53.222;7.446;2023-06-14T06:46:50;18.70;1.00
36186;DHT22;22228;53.222;7.446;2023-06-14T06:49:11;18.80;99.90
36186;DHT22;22228;53.222;7.446;2023-06-14T06:52:16;18.80;99.90
36186;DHT22;22228;53.222;7.446;2023-06-14T06:54:37;19.00;99.90
36186;DHT22;22228;53.222;7.446;2023-06-14T06:57:00;19.10;99.90
36186;DHT22;22228;53.222;7.446;2023-06-14T06:59:28;19.20;99.90
36186;DHT22;22228;53.222;7.446;2023-06-14T07:01:52;19.40;99.90
36186;DHT22;22228;53.222;7.446;2023-06-14T07:04:13;19.40;99.90
36186;DHT22;22228;53.222;7.446;2023-06-14T07:06:35;19.50;99.90
36186;DHT22;22228;53.222;7.446;2023-06-14T07:09:01;19.60;99.90
36186;DHT22;22228;53.222;7.446;2023-06-14T07:11:25;19.60;99.90
36186;DHT22;22228;53.222;7.446;2023-06-14T07:13:46;19.70;99.90
36186;DHT22;22228;53.222;7.446;2023-06-14T07:16:07;19.80;99.90
36186;DHT22;22228;53.222;7.446;2023-06-14T07:18:29;20.00;99.90
36186;DHT22;22228;53.222;7.446;2023-06-14T07:20:54;20.10;99.90
36186;DHT22;22228;53.222;7.446;2023-06-14T07:23:15;20.20;99.90
36186;DHT22;22228;53.222;7.446;2023-06-14T07:26:03;20.30;99.90
36186;DHT22;22228;53.222;7.446;2023-06-14T07:28:30;20.30;99.90
36186;DHT22;22228;53.222;7.446;2023-06-14T07:31:16;20.40;93.10
36186;DHT22;22228;53.222;7.446;2023-06-14T07:33:41;20.50;74.90
36186;DHT22;22228;53.222;7.446;2023-06-14T07:36:02;20.60;40.70
36186;DHT22;22228;53.222;7.446;2023-06-14T07:38:29;20.70;27.10
36186;DHT22;22228;53.222;7.446;2023-06-14T07:40:50;20.80;4.90
36186;DHT22;22228;53.222;7.446;2023-06-14T07:43:15;20.90;1.00
36186;DHT22;22228;53.222;7.446;2023-06-14T07:45:40;21.00;1.00
36186;DHT22;22228;53.222;7.446;2023-06-14T07:51:13;21.30;1.00
36186;DHT22;22228;53.222;7.446;2023-06-14T07:53:33;21.40;1.00
36186;DHT22;22228;53.222;7.446;2023-06-14T07:56:26;21.50;1.00
36186;DHT22;22228;53.222;7.446;2023-06-14T07:58:54;21.50;1.00
36186;DHT22;22228;53.222;7.446;2023-06-14T08:01:40;21.60;1.00
36186;DHT22;22228;53.222;7.446;2023-06-14T08:04:13;21.60;1.00
36186;DHT22;22228;53.222;7.446;2023-06-14T08:06:38;21.70;1.00
36186;DHT22;22228;53.222;7.446;2023-06-14T08:08:58;21.80;1.00
36186;DHT22;22228;53.222;7.446;2023-06-14T08:11:43;21.80;1.00
36186;DHT22;22228;53.222;7.446;2023-06-14T08:14:44;21.90;1.00
36186;DHT22;22228;53.222;7.446;2023-06-14T08:17:06;22.00;1.00
36186;DHT22;22228;53.222;7.446;2023-06-14T08:19:26;22.20;1.00
36186;DHT22;22228;53.222;7.446;2023-06-14T08:21:54;22.30;1.00
36186;DHT22;22228;53.222;7.446;2023-06-14T08:24:15;22.30;1.00
36186;DHT22;22228;53.222;7.446;2023-06-14T08:26:37;22.30;1.00
36186;DHT22;22228;53.222;7.446;2023-06-14T08:29:01;22.20;1.00
36186;DHT22;22228;53.222;7.446;2023-06-14T08:31:23;22.20;1.00
36186;DHT22;22228;53.222;7.446;2023-06-14T08:33:45;22.20;1.00
36186;DHT22;22228;53.222;7.446;2023-06-14T08:36:06;22.30;1.00
36186;DHT22;22228;53.222;7.446;2023-06-14T08:38:29;22.40;1.00
36186;DHT22;22228;53.222;7.446;2023-06-14T08:41:21;22.50;1.00
36186;DHT22;22228;53.222;7.446;2023-06-14T08:43:42;22.60;1.00
36186;DHT22;22228;53.222;7.446;2023-06-14T08:46:32;22.70;1.00
36186;DHT22;22228;53.222;7.446;2023-06-14T08:48:55;22.60;1.00
36186;DHT22;22228;53.222;7.446;2023-06-14T08:51:19;22.70;1.00
36186;DHT22;22228;53.222;7.446;2023-06-14T08:53:44;22.70;1.00
36186;DHT22;22228;53.222;7.446;2023-06-14T08:56:05;22.70;1.00
36186;DHT22;22228;53.222;7.446;2023-06-14T08:58:27;22.80;1.00
36186;DHT22;22228;53.222;7.446;2023-06-14T09:00:52;23.00;1.00
36186;DHT22;22228;53.222;7.446;2023-06-14T09:03:14;23.00;1.00
36186;DHT22;22228;53.222;7.446;2023-06-14T09:05:37;23.10;1.00
36186;DHT22;22228;53.222;7.446;2023-06-14T09:08:02;23.30;1.00
36186;DHT22;22228;53.222;7.446;2023-06-14T09:10:27;23.20;1.00
36186;DHT22;22228;53.222;7.446;2023-06-14T09:12:51;23.30;1.00
36186;DHT22;22228;53.222;7.446;2023-06-14T09:15:15;23.30;1.00
36186;DHT22;22228;53.222;7.446;2023-06-14T09:17:43;23.40;1.00
36186;DHT22;22228;53.222;7.446;2023-06-14T09:20:12;23.30;1.00
36186;DHT22;22228;53.222;7.446;2023-06-14T09:23:03;23.40;1.00
36186;DHT22;22228;53.222;7.446;2023-06-14T09:25:31;23.60;1.00
36186;DHT22;22228;53.222;7.446;2023-06-14T09:28:27;23.70;1.00
36186;DHT22;22228;53.222;7.446;2023-06-14T09:31:17;23.80;1.00
36186;DHT22;22228;53.222;7.446;2023-06-14T09:33:41;23.90;1.00
36186;DHT22;22228;53.222;7.446;2023-06-14T09:36:30;24.00;1.00
36186;DHT22;22228;53.222;7.446;2023-06-14T09:39:21;24.10;1.00
36186;DHT22;22228;53.222;7.446;2023-06-14T09:41:43;24.30;1.00
36186;DHT22;22228;53.222;7.446;2023-06-14T09:44:06;24.40;1.00
36186;DHT22;22228;53.222;7.446;2023-06-14T09:46:27;24.40;1.00
36186;DHT22;22228;53.222;7.446;2023-06-14T09:48:48;24.50;1.00
36186;DHT22;22228;53.222;7.446;2023-06-14T09:51:17;24.50;1.00
36186;DHT22;22228;53.222;7.446;2023-06-14T09:53:41;24.70;1.00
36186;DHT22;22228;53.222;7.446;2023-06-14T09:56:05;25.00;1.00
36186;DHT22;22228;53.222;7.446;2023-06-14T09:58:26;25.10;1.00
36186;DHT22;22228;53.222;7.446;2023-06-14T10:00:50;25.20;1.00
36186;DHT22;22228;53.222;7.446;2023-06-14T10:03:13;25.30;1.00
36186;DHT22;22228;53.222;7.446;2023-06-14T10:06:00;25.40;1.00
36186;DHT22;22228;53.222;7.446;2023-06-14T10:08:49;25.50;1.00
36186;DHT22;22228;53.222;7.446;2023-06-14T10:11:37;25.60;1.00
36186;DHT22;22228;53.222;7.446;2023-06-14T10:14:28;25.70;1.00
36186;DHT22;22228;53.222;7.446;2023-06-14T10:17:01;25.80;1.00
36186;DHT22;22228;53.222;7.446;2023-06-14T10:19:27;25.80;1.00
36186;DHT22;22228;53.222;7.446;2023-06-14T10:21:57;25.90;1.00
36186;DHT22;22228;53.222;7.446;2023-06-14T10:24:25;25.90;1.00
36186;DHT22;22228;53.222;7.446;2023-06-14T10:26:51;25.90;1.00
36186;DHT22;22228;53.222;7.446;2023-06-14T10:29:12;26.20;1.00
36186;DHT22;22228;53.222;7.446;2023-06-14T10:31:53;26.20;1.00
36186;DHT22;22228;53.222;7.446;2023-06-14T10:34:23;25.90;1.00
36186;DHT22;22228;53.222;7.446;2023-06-14T10:37:12;25.90;1.00
36186;DHT22;22228;53.222;7.446;2023-06-14T10:39:38;26.20;1.00
36186;DHT22;22228;53.222;7.446;2023-06-14T10:42:01;26.60;1.00
36186;DHT22;22228;53.222;7.446;2023-06-14T10:44:32;26.90;1.00
36186;DHT22;22228;53.222;7.446;2023-06-14T10:46:53;26.90;1.00
36186;DHT22;22228;53.222;7.446;2023-06-14T10:49:16;26.90;1.00
36186;DHT22;22228;53.222;7.446;2023-06-14T10:52:03;27.10;1.00
36186;DHT22;22228;53.222;7.446;2023-06-14T10:54:27;27.20;1.00
36186;DHT22;22228;53.222;7.446;2023-06-14T10:56:50;27.60;1.00
36186;DHT22;22228;53.222;7.446;2023-06-14T11:03:10;27.80;1.00
36186;DHT22;22228;53.222;7.446;2023-06-14T11:05:49;27.00;1.00
36186;DHT22;22228;53.222;7.446;2023-06-14T11:08:23;27.30;99.90
36186;DHT22;22228;53.222;7.446;2023-06-14T11:11:13;27.40;99.90
36186;DHT22;22228;53.222;7.446;2023-06-14T11:13:37;28.10;99.90
36186;DHT22;22228;53.222;7.446;2023-06-14T11:16:00;28.40;99.90
36186;DHT22;22228;53.222;7.446;2023-06-14T11:18:22;29.10;99.90
36186;DHT22;22228;53.222;7.446;2023-06-14T11:20:46;29.30;99.90
36186;DHT22;22228;53.222;7.446;2023-06-14T11:23:08;29.40;99.90
36186;DHT22;22228;53.222;7.446;2023-06-14T11:25:53;29.00;99.90
36186;DHT22;22228;53.222;7.446;2023-06-14T11:28:13;29.10;99.90
36186;DHT22;22228;53.222;7.446;2023-06-14T11:30:36;29.50;99.90
36186;DHT22;22228;53.222;7.446;2023-06-14T11:33:24;29.20;99.90
36186;DHT22;22228;53.222;7.446;2023-06-14T11:36:11;29.40;99.90
36186;DHT22;22228;53.222;7.446;2023-06-14T11:38:35;29.50;99.90
36186;DHT22;22228;53.222;7.446;2023-06-14T11:41:24;30.00;99.90
36186;DHT22;22228;53.222;7.446;2023-06-14T11:44:11;30.00;99.90
36186;DHT22;22228;53.222;7.446;2023-06-14T11:46:59;30.10;99.90
36186;DHT22;22228;53.222;7.446;2023-06-14T11:49:24;30.60;99.90
36186;DHT22;22228;53.222;7.446;2023-06-14T11:51:53;30.10;99.90
36186;DHT22;22228;53.222;7.446;2023-06-14T11:54:15;30.10;99.90
36186;DHT22;22228;53.222;7.446;2023-06-14T11:56:42;30.40;99.90
36186;DHT22;22228;53.222;7.446;2023-06-14T11:59:04;31.00;99.90
36186;DHT22;22228;53.222;7.446;2023-06-14T12:01:26;31.00;99.90
36186;DHT22;22228;53.222;7.446;2023-06-14T12:03:50;30.50;99.90
36186;DHT22;22228;53.222;7.446;2023-06-14T12:06:11;31.00;99.90
36186;DHT22;22228;53.222;7.446;2023-06-14T12:08:35;30.10;99.90
36186;DHT22;22228;53.222;7.446;2023-06-14T12:11:00;30.00;99.90
36186;DHT22;22228;53.222;7.446;2023-06-14T12:13:27;29.90;99.90
36186;DHT22;22228;53.222;7.446;2023-06-14T12:16:12;29.60;99.90
36186;DHT22;22228;53.222;7.446;2023-06-14T12:18:34;30.70;99.90
36186;DHT22;22228;53.222;7.446;2023-06-14T12:21:22;31.60;99.90
36186;DHT22;22228;53.222;7.446;2023-06-14T12:23:49;31.70;99.90
36186;DHT22;22228;53.222;7.446;2023-06-14T12:26:15;30.50;99.90
36186;DHT22;22228;53.222;7.446;2023-06-14T12:28:36;30.20;99.90
36186;DHT22;22228;53.222;7.446;2023-06-14T12:30:57;30.20;99.90
36186;DHT22;22228;53.222;7.446;2023-06-14T12:33:18;31.00;99.90
36186;DHT22;22228;53.222;7.446;2023-06-14T12:36:04;31.60;99.90
36186;DHT22;22228;53.222;7.446;2023-06-14T12:38:27;32.00;99.90
36186;DHT22;22228;53.222;7.446;2023-06-14T12:41:19;32.20;99.90
36186;DHT22;22228;53.222;7.446;2023-06-14T12:44:05;31.20;99.90
36186;DHT22;22228;53.222;7.446;2023-06-14T12:46:52;32.20;99.90
36186;DHT22;22228;53.222;7.446;2023-06-14T12:49:14;33.20;99.90
36186;DHT22;22228;53.222;7.446;2023-06-14T12:51:35;33.70;99.90
36186;DHT22;22228;53.222;7.446;2023-06-14T12:53:57;34.00;99.90
36186;DHT22;22228;53.222;7.446;2023-06-14T12:56:19;34.30;99.90
36186;DHT22;22228;53.222;7.446;2023-06-14T12:59:05;34.20;99.90
36186;DHT22;22228;53.222;7.446;2023-06-14T13:01:28;32.70;99.90
36186;DHT22;22228;53.222;7.446;2023-06-14T13:03:48;32.10;99.90
36186;DHT22;22228;53.222;7.446;2023-06-14T13:06:39;33.00;99.90
36186;DHT22;22228;53.222;7.446;2023-06-14T13:09:26;34.10;99.90
36186;DHT22;22228;53.222;7.446;2023-06-14T13:11:47;33.50;99.90
36186;DHT22;22228;53.222;7.446;2023-06-14T13:14:08;33.80;99.90
36186;DHT22;22228;53.222;7.446;2023-06-14T13:16:30;34.90;99.90
36186;DHT22;22228;53.222;7.446;2023-06-14T13:18:56;35.50;99.90
36186;DHT22;22228;53.222;7.446;2023-06-14T13:21:18;35.70;99.90
36186;DHT22;22228;53.222;7.446;2023-06-14T13:23:38;35.40;99.90
36186;DHT22;22228;53.222;7.446;2023-06-14T13:26:05;35.50;99.90
36186;DHT22;22228;53.222;7.446;2023-06-14T13:28:27;35.90;99.90
36186;DHT22;22228;53.222;7.446;2023-06-14T13:30:50;36.20;99.90
36186;DHT22;22228;53.222;7.446;2023-06-14T13:33:11;36.40;99.90
36186;DHT22;22228;53.222;7.446;2023-06-14T13:35:31;36.60;99.90
36186;DHT22;22228;53.222;7.446;2023-06-14T13:37:52;36.90;99.90
36186;DHT22;22228;53.222;7.446;2023-06-14T13:40:13;36.80;99.90
36186;DHT22;22228;53.222;7.446;2023-06-14T13:42:35;35.10;99.90
36186;DHT22;22228;53.222;7.446;2023-06-14T13:44:56;34.10;99.90
36186;DHT22;22228;53.222;7.446;2023-06-14T13:47:41;32.80;99.90
36186;DHT22;22228;53.222;7.446;2023-06-14T13:50:09;33.20;99.90
36186;DHT22;22228;53.222;7.446;2023-06-14T13:52:30;33.60;99.90
36186;DHT22;22228;53.222;7.446;2023-06-14T13:54:51;32.90;99.90
36186;DHT22;22228;53.222;7.446;2023-06-14T13:57:16;32.70;99.90
36186;DHT22;22228;53.222;7.446;2023-06-14T13:59:40;33.80;99.90
36186;DHT22;22228;53.222;7.446;2023-06-14T14:02:07;34.40;99.90
36186;DHT22;22228;53.222;7.446;2023-06-14T14:04:28;33.10;99.90
36186;DHT22;22228;53.222;7.446;2023-06-14T14:06:54;33.40;99.90
36186;DHT22;22228;53.222;7.446;2023-06-14T14:09:22;34.40;99.90
36186;DHT22;22228;53.222;7.446;2023-06-14T14:11:43;35.60;99.90
36186;DHT22;22228;53.222;7.446;2023-06-14T14:14:05;36.70;99.90
36186;DHT22;22228;53.222;7.446;2023-06-14T14:16:27;37.10;99.90
36186;DHT22;22228;53.222;7.446;2023-06-14T14:18:48;37.00;99.90
36186;DHT22;22228;53.222;7.446;2023-06-14T14:21:09;37.20;99.90
36186;DHT22;22228;53.222;7.446;2023-06-14T14:23:31;37.20;99.90
36186;DHT22;22228;53.222;7.446;2023-06-14T14:25:52;37.30;99.90
36186;DHT22;22228;53.222;7.446;2023-06-14T14:28:13;37.60;99.90
36186;DHT22;22228;53.222;7.446;2023-06-14T14:30:36;38.20;99.90
36186;DHT22;22228;53.222;7.446;2023-06-14T14:33:00;37.90;99.90
36186;DHT22;22228;53.222;7.446;2023-06-14T14:35:20;38.30;99.90
36186;DHT22;22228;53.222;7.446;2023-06-14T14:38:09;37.80;99.90
36186;DHT22;22228;53.222;7.446;2023-06-14T14:40:29;35.60;99.90
36186;DHT22;22228;53.222;7.446;2023-06-14T14:42:56;34.70;99.90
36186;DHT22;22228;53.222;7.446;2023-06-14T14:45:17;34.90;99.90
36186;DHT22;22228;53.222;7.446;2023-06-14T14:47:38;35.00;99.90
36186;DHT22;22228;53.222;7.446;2023-06-14T14:50:07;35.20;99.90
36186;DHT22;22228;53.222;7.446;2023-06-14T14:52:58;35.30;99.90
36186;DHT22;22228;53.222;7.446;2023-06-14T14:55:19;36.00;99.90
36186;DHT22;22228;53.222;7.446;2023-06-14T14:58:05;36.40;99.90
36186;DHT22;22228;53.222;7.446;2023-06-14T15:00:27;36.20;99.90
36186;DHT22;22228;53.222;7.446;2023-06-14T15:02:48;35.40;99.90
36186;DHT22;22228;53.222;7.446;2023-06-14T15:05:10;34.80;99.90
36186;DHT22;22228;53.222;7.446;2023-06-14T15:07:55;34.10;99.90
36186;DHT22;22228;53.222;7.446;2023-06-14T15:10:16;33.50;99.90
36186;DHT22;22228;53.222;7.446;2023-06-14T15:12:37;32.90;99.90
36186;DHT22;22228;53.222;7.446;2023-06-14T15:15:01;32.20;99.90
36186;DHT22;22228;53.222;7.446;2023-06-14T15:17:22;31.20;99.90
36186;DHT22;22228;53.222;7.446;2023-06-14T15:19:43;30.50;99.90
36186;DHT22;22228;53.222;7.446;2023-06-14T15:22:31;30.30;99.90
36186;DHT22;22228;53.222;7.446;2023-06-14T15:24:53;30.40;99.90
36186;DHT22;22228;53.222;7.446;2023-06-14T15:27:14;30.20;99.90
36186;DHT22;22228;53.222;7.446;2023-06-14T15:29:35;30.10;99.90
36186;DHT22;22228;53.222;7.446;2023-06-14T15:31:56;30.10;99.90
36186;DHT22;22228;53.222;7.446;2023-06-14T15:34:41;30.20;99.90
36186;DHT22;22228;53.222;7.446;2023-06-14T15:37:31;30.50;99.90
36186;DHT22;22228;53.222;7.446;2023-06-14T15:39:52;31.20;99.90
36186;DHT22;22228;53.222;7.446;2023-06-14T15:42:12;31.70;99.90
36186;DHT22;22228;53.222;7.446;2023-06-14T15:44:33;32.00;99.90
36186;DHT22;22228;53.222;7.446;2023-06-14T15:47:27;32.50;99.90
36186;DHT22;22228;53.222;7.446;2023-06-14T15:50:17;33.60;99.90
36186;DHT22;22228;53.222;7.446;2023-06-14T15:52:45;35.20;99.90
36186;DHT22;22228;53.222;7.446;2023-06-14T15:55:12;35.60;99.90
36186;DHT22;22228;53.222;7.446;2023-06-14T15:57:58;35.00;99.90
36186;DHT22;22228;53.222;7.446;2023-06-14T16:00:19;34.50;99.90
36186;DHT22;22228;53.222;7.446;2023-06-14T16:02:41;34.40;99.90
36186;DHT22;22228;53.222;7.446;2023-06-14T16:05:02;34.50;99.90
36186;DHT22;22228;53.222;7.446;2023-06-14T16:07:49;35.20;99.90
36186;DHT22;22228;53.222;7.446;2023-06-14T16:10:10;35.80;99.90
36186;DHT22;22228;53.222;7.446;2023-06-14T16:12:36;36.20;99.90
36186;DHT22;22228;53.222;7.446;2023-06-14T16:15:04;36.40;99.90
36186;DHT22;22228;53.222;7.446;2023-06-14T16:17:29;37.00;99.90
36186;DHT22;22228;53.222;7.446;2023-06-14T16:19:56;37.00;99.90
36186;DHT22;22228;53.222;7.446;2023-06-14T16:22:16;36.20;99.90
36186;DHT22;22228;53.222;7.446;2023-06-14T16:24:38;34.90;99.90
36186;DHT22;22228;53.222;7.446;2023-06-14T16:27:03;33.00;99.90
36186;DHT22;22228;53.222;7.446;2023-06-14T16:30:04;31.00;99.90
36186;DHT22;22228;53.222;7.446;2023-06-14T16:32:25;29.50;99.90
36186;DHT22;22228;53.222;7.446;2023-06-14T16:34:46;28.60;99.90
36186;DHT22;22228;53.222;7.446;2023-06-14T16:37:08;27.90;99.90
36186;DHT22;22228;53.222;7.446;2023-06-14T16:39:28;27.20;99.90
36186;DHT22;22228;53.222;7.446;2023-06-14T16:41:53;26.70;99.90
36186;DHT22;22228;53.222;7.446;2023-06-14T16:44:15;26.90;99.90
36186;DHT22;22228;53.222;7.446;2023-06-14T16:46:35;27.70;99.90
36186;DHT22;22228;53.222;7.446;2023-06-14T16:48:56;29.00;99.90
36186;DHT22;22228;53.222;7.446;2023-06-14T16:51:17;29.90;99.90
36186;DHT22;22228;53.222;7.446;2023-06-14T16:53:42;30.50;99.90
36186;DHT22;22228;53.222;7.446;2023-06-14T16:56:10;31.10;99.90
36186;DHT22;22228;53.222;7.446;2023-06-14T16:58:32;31.50;99.90
36186;DHT22;22228;53.222;7.446;2023-06-14T17:00:56;31.90;99.90
36186;DHT22;22228;53.222;7.446;2023-06-14T17:03:17;32.50;99.90
36186;DHT22;22228;53.222;7.446;2023-06-14T17:05:39;32.50;99.90
36186;DHT22;22228;53.222;7.446;2023-06-14T17:08:41;32.20;99.90
36186;DHT22;22228;53.222;7.446;2023-06-14T17:11:01;31.60;99.90
36186;DHT22;22228;53.222;7.446;2023-06-14T17:13:23;31.00;99.90
36186;DHT22;22228;53.222;7.446;2023-06-14T17:15:51;31.10;99.90
36186;DHT22;22228;53.222;7.446;2023-06-14T17:18:12;30.80;99.90
36186;DHT22;22228;53.222;7.446;2023-06-14T17:20:33;31.10;99.90
36186;DHT22;22228;53.222;7.446;2023-06-14T17:22:58;30.90;99.90
36186;DHT22;22228;53.222;7.446;2023-06-14T17:25:20;30.60;99.90
36186;DHT22;22228;53.222;7.446;2023-06-14T17:27:41;30.30;99.90
36186;DHT22;22228;53.222;7.446;2023-06-14T17:30:06;30.30;99.90
36186;DHT22;22228;53.222;7.446;2023-06-14T17:32:29;29.60;99.90
36186;DHT22;22228;53.222;7.446;2023-06-14T17:34:50;28.40;99.90
36186;DHT22;22228;53.222;7.446;2023-06-14T17:37:12;27.20;99.90
36186;DHT22;22228;53.222;7.446;2023-06-14T17:39:33;26.50;99.90
36186;DHT22;22228;53.222;7.446;2023-06-14T17:41:56;26.00;99.90
36186;DHT22;22228;53.222;7.446;2023-06-14T17:44:20;25.50;99.90
36186;DHT22;22228;53.222;7.446;2023-06-14T17:46:40;25.20;99.90
36186;DHT22;22228;53.222;7.446;2023-06-14T17:49:34;25.00;99.90
36186;DHT22;22228;53.222;7.446;2023-06-14T17:55:08;26.40;99.90
36186;DHT22;22228;53.222;7.446;2023-06-14T17:57:29;26.90;99.90
36186;DHT22;22228;53.222;7.446;2023-06-14T17:59:50;27.40;99.90
36186;DHT22;22228;53.222;7.446;2023-06-14T18:02:35;28.00;99.90
36186;DHT22;22228;53.222;7.446;2023-06-14T18:05:04;28.30;99.90
36186;DHT22;22228;53.222;7.446;2023-06-14T18:07:31;28.50;99.90
36186;DHT22;22228;53.222;7.446;2023-06-14T18:10:17;28.60;99.90
36186;DHT22;22228;53.222;7.446;2023-06-14T18:12:38;29.20;99.90
36186;DHT22;22228;53.222;7.446;2023-06-14T18:15:04;29.20;99.90
36186;DHT22;22228;53.222;7.446;2023-06-14T18:17:24;29.00;99.90
36186;DHT22;22228;53.222;7.446;2023-06-14T18:20:17;28.60;99.90
36186;DHT22;22228;53.222;7.446;2023-06-14T18:22:38;28.00;99.90
36186;DHT22;22228;53.222;7.446;2023-06-14T18:25:05;28.10;99.90
36186;DHT22;22228;53.222;7.446;2023-06-14T18:27:51;27.90;99.90
36186;DHT22;22228;53.222;7.446;2023-06-14T18:30:12;27.40;99.90
36186;DHT22;22228;53.222;7.446;2023-06-14T18:32:34;27.20;99.90
36186;DHT22;22228;53.222;7.446;2023-06-14T18:34:58;27.00;99.90
36186;DHT22;22228;53.222;7.446;2023-06-14T18:37:23;26.70;99.90
36186;DHT22;22228;53.222;7.446;2023-06-14T18:39:53;26.70;99.90
36186;DHT22;22228;53.222;7.446;2023-06-14T18:42:13;26.30;99.90